sensor_id;sensor_type;location;lat;lon;timestamp;P1;durP1;ratioP1;P2;durP2;ratioP2
11008;SDS011;5557;51.670;7.788;2024-03-08T00:02:15;31.33;;;27.20;;
11008;SDS011;5557;51.670;7.788;2024-03-08T00:04:42;30.90;;;25.50;;
11008;SDS011;5557;51.670;7.788;2024-03-08T00:07:09;32.77;;;27.93;;
11008;SDS011;5557;51.670;7.788;2024-03-08T00:09:36;29.20;;;25.20;;
11008;SDS011;5557;51.670;7.788;2024-03-08T00:12:03;34.57;;;28.20;;
11008;SDS011;5557;51.670;7.788;2024-03-08T00:14:30;29.07;;;25.87;;
11008;SDS011;5557;51.670;7.788;2024-03-08T00:16:58;32.70;;;27.80;;
11008;SDS011;5557;51.670;7.788;2024-03-08T00:19:25;30.97;;;27.70;;
11008;SDS011;5557;51.670;7.788;2024-03-08T00:21:52;32.00;;;25.27;;
11008;SDS011;5557;51.670;7.788;2024-03-08T00:24:19;30.73;;;27.03;;
11008;SDS011;5557;51.670;7.788;2024-03-08T00:26:50;33.73;;;27.07;;
11008;SDS011;5557;51.670;7.788;2024-03-08T00:29:17;36.90;;;27.60;;
11008;SDS011;5557;51.670;7.788;2024-03-08T00:31:44;30.30;;;27.00;;
11008;SDS011;5557;51.670;7.788;2024-03-08T00:34:12;31.10;;;26.27;;
11008;SDS011;5557;51.670;7.788;2024-03-08T00:36:39;32.10;;;26.50;;
11008;SDS011;5557;51.670;7.788;2024-03-08T00:39:06;34.63;;;28.57;;
11008;SDS011;5557;51.670;7.788;2024-03-08T00:41:33;34.10;;;27.53;;
11008;SDS011;5557;51.670;7.788;2024-03-08T00:44:00;29.97;;;26.70;;
11008;SDS011;5557;51.670;7.788;2024-03-08T00:46:30;33.40;;;28.33;;
11008;SDS011;5557;51.670;7.788;2024-03-08T00:48:58;33.57;;;28.60;;
11008;SDS011;5557;51.670;7.788;2024-03-08T00:51:25;32.47;;;26.73;;
11008;SDS011;5557;51.670;7.788;2024-03-08T00:53:53;32.33;;;26.00;;
11008;SDS011;5557;51.670;7.788;2024-03-08T00:56:20;34.77;;;28.40;;
11008;SDS011;5557;51.670;7.788;2024-03-08T00:58:47;28.67;;;25.33;;
11008;SDS011;5557;51.670;7.788;2024-03-08T01:01:14;36.23;;;27.30;;
11008;SDS011;5557;51.670;7.788;2024-03-08T01:03:44;30.57;;;27.23;;
11008;SDS011;5557;51.670;7.788;2024-03-08T01:06:11;34.90;;;28.03;;
11008;SDS011;5557;51.670;7.788;2024-03-08T01:08:38;28.90;;;24.90;;
11008;SDS011;5557;51.670;7.788;2024-03-08T01:11:09;34.97;;;27.73;;
11008;SDS011;5557;51.670;7.788;2024-03-08T01:13:37;33.07;;;27.77;;
11008;SDS011;5557;51.670;7.788;2024-03-08T01:16:04;30.00;;;26.13;;
11008;SDS011;5557;51.670;7.788;2024-03-08T01:18:32;33.97;;;26.43;;
11008;SDS011;5557;51.670;7.788;2024-03-08T01:20:59;30.47;;;27.10;;
11008;SDS011;5557;51.670;7.788;2024-03-08T01:23:26;31.80;;;28.10;;
11008;SDS011;5557;51.670;7.788;2024-03-08T01:25:55;33.40;;;28.60;;
11008;SDS011;5557;51.670;7.788;2024-03-08T01:28:25;31.80;;;26.70;;
11008;SDS011;5557;51.670;7.788;2024-03-08T01:30:53;30.43;;;25.90;;
11008;SDS011;5557;51.670;7.788;2024-03-08T01:33:23;34.33;;;27.53;;
11008;SDS011;5557;51.670;7.788;2024-03-08T01:35:52;33.97;;;26.90;;
11008;SDS011;5557;51.670;7.788;2024-03-08T01:38:19;32.77;;;26.37;;
11008;SDS011;5557;51.670;7.788;2024-03-08T01:40:49;31.43;;;25.57;;
11008;SDS011;5557;51.670;7.788;2024-03-08T01:45:55;33.07;;;28.10;;
11008;SDS011;5557;51.670;7.788;2024-03-08T01:48:26;32.07;;;26.23;;
11008;SDS011;5557;51.670;7.788;2024-03-08T01:50:58;36.53;;;28.07;;
11008;SDS011;5557;51.670;7.788;2024-03-08T01:53:26;30.77;;;25.93;;
11008;SDS011;5557;51.670;7.788;2024-03-08T01:55:57;29.60;;;25.97;;
11008;SDS011;5557;51.670;7.788;2024-03-08T01:58:26;35.23;;;26.10;;
11008;SDS011;5557;51.670;7.788;2024-03-08T02:00:56;34.10;;;27.10;;
11008;SDS011;5557;51.670;7.788;2024-03-08T02:03:24;30.80;;;26.17;;
11008;SDS011;5557;51.670;7.788;2024-03-08T02:05:51;37.30;;;27.17;;
11008;SDS011;5557;51.670;7.788;2024-03-08T02:08:18;31.90;;;26.80;;
11008;SDS011;5557;51.670;7.788;2024-03-08T02:10:49;29.90;;;25.80;;
11008;SDS011;5557;51.670;7.788;2024-03-08T02:13:17;33.80;;;26.60;;
11008;SDS011;5557;51.670;7.788;2024-03-08T02:15:58;28.53;;;25.53;;
11008;SDS011;5557;51.670;7.788;2024-03-08T02:18:27;35.03;;;27.50;;
11008;SDS011;5557;51.670;7.788;2024-03-08T02:20:56;33.20;;;27.80;;
11008;SDS011;5557;51.670;7.788;2024-03-08T02:23:25;33.87;;;26.80;;
11008;SDS011;5557;51.670;7.788;2024-03-08T02:25:54;35.50;;;26.63;;
11008;SDS011;5557;51.670;7.788;2024-03-08T02:28:23;29.07;;;25.33;;
11008;SDS011;5557;51.670;7.788;2024-03-08T02:30:51;30.40;;;26.63;;
11008;SDS011;5557;51.670;7.788;2024-03-08T02:33:25;33.27;;;27.60;;
11008;SDS011;5557;51.670;7.788;2024-03-08T02:35:54;32.47;;;27.33;;
11008;SDS011;5557;51.670;7.788;2024-03-08T02:38:22;32.37;;;27.80;;
11008;SDS011;5557;51.670;7.788;2024-03-08T02:40:52;37.33;;;26.60;;
11008;SDS011;5557;51.670;7.788;2024-03-08T02:43:20;39.97;;;27.70;;
11008;SDS011;5557;51.670;7.788;2024-03-08T02:45:51;35.80;;;28.70;;
11008;SDS011;5557;51.670;7.788;2024-03-08T02:48:19;33.90;;;28.20;;
11008;SDS011;5557;51.670;7.788;2024-03-08T02:50:48;34.80;;;26.37;;
11008;SDS011;5557;51.670;7.788;2024-03-08T02:53:18;35.67;;;28.17;;
11008;SDS011;5557;51.670;7.788;2024-03-08T02:55:48;35.93;;;27.50;;
11008;SDS011;5557;51.670;7.788;2024-03-08T02:58:15;42.43;;;28.73;;
11008;SDS011;5557;51.670;7.788;2024-03-08T03:00:42;30.40;;;27.10;;
11008;SDS011;5557;51.670;7.788;2024-03-08T03:03:11;32.27;;;27.10;;
11008;SDS011;5557;51.670;7.788;2024-03-08T03:05:38;31.03;;;27.50;;
11008;SDS011;5557;51.670;7.788;2024-03-08T03:08:12;32.87;;;27.53;;
11008;SDS011;5557;51.670;7.788;2024-03-08T03:10:39;35.27;;;27.87;;
11008;SDS011;5557;51.670;7.788;2024-03-08T03:13:07;35.13;;;27.00;;
11008;SDS011;5557;51.670;7.788;2024-03-08T03:15:35;33.50;;;28.20;;
11008;SDS011;5557;51.670;7.788;2024-03-08T03:18:03;33.60;;;26.70;;
11008;SDS011;5557;51.670;7.788;2024-03-08T03:20:35;36.80;;;28.93;;
11008;SDS011;5557;51.670;7.788;2024-03-08T03:23:08;36.70;;;29.33;;
11008;SDS011;5557;51.670;7.788;2024-03-08T03:25:35;34.43;;;28.23;;
11008;SDS011;5557;51.670;7.788;2024-03-08T03:28:05;36.63;;;29.90;;
11008;SDS011;5557;51.670;7.788;2024-03-08T03:30:34;36.77;;;29.40;;
11008;SDS011;5557;51.670;7.788;2024-03-08T03:33:01;32.27;;;27.13;;
11008;SDS011;5557;51.670;7.788;2024-03-08T03:35:34;31.30;;;27.10;;
11008;SDS011;5557;51.670;7.788;2024-03-08T03:38:03;36.80;;;29.70;;
11008;SDS011;5557;51.670;7.788;2024-03-08T03:40:36;39.37;;;29.83;;
11008;SDS011;5557;51.670;7.788;2024-03-08T03:43:05;36.60;;;30.23;;
11008;SDS011;5557;51.670;7.788;2024-03-08T03:45:32;37.10;;;28.23;;
11008;SDS011;5557;51.670;7.788;2024-03-08T03:48:04;34.40;;;28.90;;
11008;SDS011;5557;51.670;7.788;2024-03-08T03:50:33;40.03;;;30.50;;
11008;SDS011;5557;51.670;7.788;2024-03-08T03:53:03;37.00;;;28.73;;
11008;SDS011;5557;51.670;7.788;2024-03-08T03:55:30;35.80;;;27.90;;
11008;SDS011;5557;51.670;7.788;2024-03-08T03:57:58;36.77;;;29.80;;
11008;SDS011;5557;51.670;7.788;2024-03-08T04:00:27;41.23;;;29.87;;
11008;SDS011;5557;51.670;7.788;2024-03-08T04:02:54;34.93;;;28.20;;
11008;SDS011;5557;51.670;7.788;2024-03-08T04:05:25;34.27;;;28.40;;
11008;SDS011;5557;51.670;7.788;2024-03-08T04:07:52;36.60;;;28.30;;
11008;SDS011;5557;51.670;7.788;2024-03-08T04:10:19;37.20;;;30.90;;
11008;SDS011;5557;51.670;7.788;2024-03-08T04:12:47;34.17;;;28.00;;
11008;SDS011;5557;51.670;7.788;2024-03-08T04:15:14;40.77;;;31.13;;
11008;SDS011;5557;51.670;7.788;2024-03-08T04:17:41;35.93;;;30.00;;
11008;SDS011;5557;51.670;7.788;2024-03-08T04:20:09;39.93;;;31.00;;
11008;SDS011;5557;51.670;7.788;2024-03-08T04:22:37;38.23;;;31.07;;
11008;SDS011;5557;51.670;7.788;2024-03-08T04:25:06;40.30;;;31.50;;
11008;SDS011;5557;51.670;7.788;2024-03-08T04:27:33;38.43;;;31.53;;
11008;SDS011;5557;51.670;7.788;2024-03-08T04:30:01;36.07;;;31.13;;
11008;SDS011;5557;51.670;7.788;2024-03-08T04:32:29;37.00;;;29.43;;
11008;SDS011;5557;51.670;7.788;2024-03-08T04:34:59;35.13;;;28.60;;
11008;SDS011;5557;51.670;7.788;2024-03-08T04:37:30;38.80;;;31.13;;
11008;SDS011;5557;51.670;7.788;2024-03-08T04:39:58;42.23;;;32.80;;
11008;SDS011;5557;51.670;7.788;2024-03-08T04:42:25;39.40;;;31.97;;
11008;SDS011;5557;51.670;7.788;2024-03-08T04:44:56;36.83;;;30.77;;
11008;SDS011;5557;51.670;7.788;2024-03-08T04:47:23;37.23;;;31.50;;
11008;SDS011;5557;51.670;7.788;2024-03-08T04:49:51;40.70;;;31.13;;
11008;SDS011;5557;51.670;7.788;2024-03-08T04:52:18;39.90;;;31.50;;
11008;SDS011;5557;51.670;7.788;2024-03-08T04:54:45;38.20;;;30.33;;
11008;SDS011;5557;51.670;7.788;2024-03-08T04:57:12;37.60;;;29.87;;
11008;SDS011;5557;51.670;7.788;2024-03-08T04:59:39;43.43;;;31.03;;
11008;SDS011;5557;51.670;7.788;2024-03-08T05:02:06;36.73;;;31.23;;
11008;SDS011;5557;51.670;7.788;2024-03-08T05:04:34;39.47;;;32.37;;
11008;SDS011;5557;51.670;7.788;2024-03-08T05:07:01;41.20;;;32.40;;
11008;SDS011;5557;51.670;7.788;2024-03-08T05:09:29;40.30;;;30.50;;
11008;SDS011;5557;51.670;7.788;2024-03-08T05:11:58;39.83;;;32.60;;
11008;SDS011;5557;51.670;7.788;2024-03-08T05:14:26;41.57;;;31.43;;
11008;SDS011;5557;51.670;7.788;2024-03-08T05:16:53;38.70;;;31.87;;
11008;SDS011;5557;51.670;7.788;2024-03-08T05:19:20;45.60;;;32.70;;
11008;SDS011;5557;51.670;7.788;2024-03-08T05:21:48;44.37;;;30.80;;
11008;SDS011;5557;51.670;7.788;2024-03-08T05:24:16;41.93;;;32.67;;
11008;SDS011;5557;51.670;7.788;2024-03-08T05:26:45;40.00;;;32.60;;
11008;SDS011;5557;51.670;7.788;2024-03-08T05:29:13;42.60;;;33.17;;
11008;SDS011;5557;51.670;7.788;2024-03-08T05:31:47;42.70;;;34.23;;
11008;SDS011;5557;51.670;7.788;2024-03-08T05:34:16;42.03;;;32.53;;
11008;SDS011;5557;51.670;7.788;2024-03-08T05:36:43;44.47;;;34.57;;
11008;SDS011;5557;51.670;7.788;2024-03-08T05:39:14;43.43;;;33.80;;
11008;SDS011;5557;51.670;7.788;2024-03-08T05:41:42;45.33;;;35.80;;
11008;SDS011;5557;51.670;7.788;2024-03-08T05:44:10;48.13;;;37.20;;
11008;SDS011;5557;51.670;7.788;2024-03-08T05:46:37;47.27;;;36.17;;
11008;SDS011;5557;51.670;7.788;2024-03-08T05:49:05;45.57;;;34.00;;
11008;SDS011;5557;51.670;7.788;2024-03-08T05:51:34;43.97;;;35.40;;
11008;SDS011;5557;51.670;7.788;2024-03-08T05:54:02;47.60;;;34.53;;
11008;SDS011;5557;51.670;7.788;2024-03-08T05:56:32;49.60;;;37.97;;
11008;SDS011;5557;51.670;7.788;2024-03-08T05:58:59;44.80;;;37.07;;
11008;SDS011;5557;51.670;7.788;2024-03-08T06:01:27;50.03;;;38.00;;
11008;SDS011;5557;51.670;7.788;2024-03-08T06:03:55;44.43;;;34.40;;
11008;SDS011;5557;51.670;7.788;2024-03-08T06:06:23;46.20;;;35.63;;
11008;SDS011;5557;51.670;7.788;2024-03-08T06:08:51;44.63;;;36.37;;
11008;SDS011;5557;51.670;7.788;2024-03-08T06:11:19;46.77;;;36.57;;
11008;SDS011;5557;51.670;7.788;2024-03-08T06:13:47;50.10;;;36.33;;
11008;SDS011;5557;51.670;7.788;2024-03-08T06:16:14;47.60;;;34.83;;
11008;SDS011;5557;51.670;7.788;2024-03-08T06:18:41;44.67;;;35.93;;
11008;SDS011;5557;51.670;7.788;2024-03-08T06:21:09;45.13;;;35.13;;
11008;SDS011;5557;51.670;7.788;2024-03-08T06:23:38;44.53;;;35.43;;
11008;SDS011;5557;51.670;7.788;2024-03-08T06:26:05;43.30;;;35.00;;
11008;SDS011;5557;51.670;7.788;2024-03-08T06:28:32;46.63;;;35.43;;
11008;SDS011;5557;51.670;7.788;2024-03-08T06:31:01;44.20;;;34.10;;
11008;SDS011;5557;51.670;7.788;2024-03-08T06:33:28;41.70;;;33.73;;
11008;SDS011;5557;51.670;7.788;2024-03-08T06:35:56;46.90;;;35.23;;
11008;SDS011;5557;51.670;7.788;2024-03-08T06:38:24;42.60;;;31.83;;
11008;SDS011;5557;51.670;7.788;2024-03-08T06:40:51;47.53;;;32.90;;
11008;SDS011;5557;51.670;7.788;2024-03-08T06:43:19;42.93;;;31.20;;
11008;SDS011;5557;51.670;7.788;2024-03-08T06:45:46;42.60;;;31.10;;
11008;SDS011;5557;51.670;7.788;2024-03-08T06:48:17;43.33;;;30.50;;
11008;SDS011;5557;51.670;7.788;2024-03-08T06:50:44;41.63;;;31.07;;
11008;SDS011;5557;51.670;7.788;2024-03-08T06:53:12;46.97;;;33.70;;
11008;SDS011;5557;51.670;7.788;2024-03-08T06:55:40;45.93;;;32.03;;
11008;SDS011;5557;51.670;7.788;2024-03-08T06:58:07;41.70;;;29.57;;
11008;SDS011;5557;51.670;7.788;2024-03-08T07:00:34;45.37;;;31.17;;
11008;SDS011;5557;51.670;7.788;2024-03-08T07:03:01;49.27;;;30.77;;
11008;SDS011;5557;51.670;7.788;2024-03-08T07:05:29;39.90;;;29.03;;
11008;SDS011;5557;51.670;7.788;2024-03-08T07:07:57;46.60;;;28.87;;
11008;SDS011;5557;51.670;7.788;2024-03-08T07:10:24;46.87;;;29.43;;
11008;SDS011;5557;51.670;7.788;2024-03-08T07:12:52;43.07;;;30.57;;
11008;SDS011;5557;51.670;7.788;2024-03-08T07:15:22;38.80;;;29.00;;
11008;SDS011;5557;51.670;7.788;2024-03-08T07:17:49;42.27;;;26.03;;
11008;SDS011;5557;51.670;7.788;2024-03-08T07:20:19;38.80;;;27.30;;
11008;SDS011;5557;51.670;7.788;2024-03-08T07:22:47;47.30;;;29.73;;
11008;SDS011;5557;51.670;7.788;2024-03-08T07:25:17;39.07;;;27.70;;
11008;SDS011;5557;51.670;7.788;2024-03-08T07:27:52;41.97;;;28.33;;
11008;SDS011;5557;51.670;7.788;2024-03-08T07:30:20;36.30;;;22.37;;
11008;SDS011;5557;51.670;7.788;2024-03-08T07:33:07;40.07;;;27.97;;
11008;SDS011;5557;51.670;7.788;2024-03-08T07:35:39;39.30;;;25.33;;
11008;SDS011;5557;51.670;7.788;2024-03-08T07:38:07;44.90;;;27.87;;
11008;SDS011;5557;51.670;7.788;2024-03-08T07:40:39;37.50;;;26.07;;
11008;SDS011;5557;51.670;7.788;2024-03-08T07:43:13;40.17;;;25.87;;
11008;SDS011;5557;51.670;7.788;2024-03-08T07:45:40;41.80;;;26.83;;
11008;SDS011;5557;51.670;7.788;2024-03-08T07:48:08;40.53;;;26.10;;
11008;SDS011;5557;51.670;7.788;2024-03-08T07:50:37;43.23;;;25.70;;
11008;SDS011;5557;51.670;7.788;2024-03-08T07:53:06;40.50;;;27.60;;
11008;SDS011;5557;51.670;7.788;2024-03-08T07:55:34;38.43;;;23.23;;
11008;SDS011;5557;51.670;7.788;2024-03-08T07:58:02;37.37;;;24.87;;
11008;SDS011;5557;51.670;7.788;2024-03-08T08:00:29;45.33;;;26.13;;
11008;SDS011;5557;51.670;7.788;2024-03-08T08:02:58;44.00;;;25.37;;
11008;SDS011;5557;51.670;7.788;2024-03-08T08:05:25;36.50;;;24.50;;
11008;SDS011;5557;51.670;7.788;2024-03-08T08:07:52;39.60;;;24.80;;
11008;SDS011;5557;51.670;7.788;2024-03-08T08:10:20;45.17;;;24.57;;
11008;SDS011;5557;51.670;7.788;2024-03-08T08:12:52;36.40;;;25.83;;
11008;SDS011;5557;51.670;7.788;2024-03-08T08:15:19;38.23;;;25.70;;
11008;SDS011;5557;51.670;7.788;2024-03-08T08:17:46;42.43;;;25.10;;
11008;SDS011;5557;51.670;7.788;2024-03-08T08:20:17;37.70;;;23.80;;
11008;SDS011;5557;51.670;7.788;2024-03-08T08:22:44;43.03;;;25.87;;
11008;SDS011;5557;51.670;7.788;2024-03-08T08:25:12;46.23;;;26.43;;
11008;SDS011;5557;51.670;7.788;2024-03-08T08:27:40;38.50;;;24.47;;
11008;SDS011;5557;51.670;7.788;2024-03-08T08:30:09;37.40;;;25.27;;
11008;SDS011;5557;51.670;7.788;2024-03-08T08:32:38;37.10;;;24.63;;
11008;SDS011;5557;51.670;7.788;2024-03-08T08:35:15;32.30;;;22.83;;
11008;SDS011;5557;51.670;7.788;2024-03-08T08:37:44;50.80;;;24.40;;
11008;SDS011;5557;51.670;7.788;2024-03-08T08:40:11;34.00;;;21.27;;
11008;SDS011;5557;51.670;7.788;2024-03-08T08:42:42;36.97;;;24.73;;
11008;SDS011;5557;51.670;7.788;2024-03-08T08:45:10;44.53;;;24.27;;
11008;SDS011;5557;51.670;7.788;2024-03-08T08:47:43;47.10;;;26.47;;
11008;SDS011;5557;51.670;7.788;2024-03-08T08:50:12;40.33;;;22.83;;
11008;SDS011;5557;51.670;7.788;2024-03-08T08:52:40;35.30;;;22.37;;
11008;SDS011;5557;51.670;7.788;2024-03-08T08:55:10;42.93;;;25.13;;
11008;SDS011;5557;51.670;7.788;2024-03-08T08:57:41;30.30;;;22.00;;
11008;SDS011;5557;51.670;7.788;2024-03-08T09:00:09;34.27;;;23.73;;
11008;SDS011;5557;51.670;7.788;2024-03-08T09:02:41;39.37;;;25.00;;
11008;SDS011;5557;51.670;7.788;2024-03-08T09:05:09;37.83;;;24.30;;
11008;SDS011;5557;51.670;7.788;2024-03-08T09:07:36;32.33;;;22.50;;
11008;SDS011;5557;51.670;7.788;2024-03-08T09:10:04;38.90;;;23.00;;
11008;SDS011;5557;51.670;7.788;2024-03-08T09:12:34;38.50;;;24.23;;
11008;SDS011;5557;51.670;7.788;2024-03-08T09:15:01;32.10;;;23.40;;
11008;SDS011;5557;51.670;7.788;2024-03-08T09:17:28;33.60;;;23.50;;
11008;SDS011;5557;51.670;7.788;2024-03-08T09:19:56;35.93;;;23.80;;
11008;SDS011;5557;51.670;7.788;2024-03-08T09:22:24;37.83;;;23.03;;
11008;SDS011;5557;51.670;7.788;2024-03-08T09:24:51;36.30;;;25.57;;
11008;SDS011;5557;51.670;7.788;2024-03-08T09:27:18;34.93;;;25.30;;
11008;SDS011;5557;51.670;7.788;2024-03-08T09:29:46;36.47;;;23.07;;
11008;SDS011;5557;51.670;7.788;2024-03-08T09:32:13;32.93;;;23.90;;
11008;SDS011;5557;51.670;7.788;2024-03-08T09:34:40;33.20;;;23.90;;
11008;SDS011;5557;51.670;7.788;2024-03-08T09:37:07;37.37;;;23.07;;
11008;SDS011;5557;51.670;7.788;2024-03-08T09:39:35;34.90;;;22.60;;
11008;SDS011;5557;51.670;7.788;2024-03-08T09:42:03;35.40;;;22.67;;
11008;SDS011;5557;51.670;7.788;2024-03-08T09:44:32;43.33;;;22.63;;
11008;SDS011;5557;51.670;7.788;2024-03-08T09:46:59;34.77;;;22.27;;
11008;SDS011;5557;51.670;7.788;2024-03-08T09:49:30;40.13;;;23.20;;
11008;SDS011;5557;51.670;7.788;2024-03-08T09:51:57;32.67;;;21.77;;
11008;SDS011;5557;51.670;7.788;2024-03-08T09:54:24;34.17;;;22.10;;
11008;SDS011;5557;51.670;7.788;2024-03-08T09:56:53;40.63;;;23.00;;
11008;SDS011;5557;51.670;7.788;2024-03-08T09:59:20;33.60;;;22.53;;
11008;SDS011;5557;51.670;7.788;2024-03-08T10:01:47;27.33;;;20.70;;
11008;SDS011;5557;51.670;7.788;2024-03-08T10:04:14;36.70;;;21.70;;
11008;SDS011;5557;51.670;7.788;2024-03-08T10:06:41;30.00;;;21.13;;
11008;SDS011;5557;51.670;7.788;2024-03-08T10:09:08;34.87;;;22.47;;
11008;SDS011;5557;51.670;7.788;2024-03-08T10:11:36;31.67;;;22.50;;
11008;SDS011;5557;51.670;7.788;2024-03-08T10:14:04;36.00;;;21.77;;
11008;SDS011;5557;51.670;7.788;2024-03-08T10:16:32;31.90;;;19.73;;
11008;SDS011;5557;51.670;7.788;2024-03-08T10:19:01;31.73;;;20.23;;
11008;SDS011;5557;51.670;7.788;2024-03-08T10:21:28;30.03;;;22.10;;
11008;SDS011;5557;51.670;7.788;2024-03-08T10:23:55;33.17;;;22.63;;
11008;SDS011;5557;51.670;7.788;2024-03-08T10:26:22;32.37;;;19.67;;
11008;SDS011;5557;51.670;7.788;2024-03-08T10:28:50;36.50;;;23.07;;
11008;SDS011;5557;51.670;7.788;2024-03-08T10:31:19;31.73;;;22.97;;
11008;SDS011;5557;51.670;7.788;2024-03-08T10:33:47;40.50;;;20.67;;
11008;SDS011;5557;51.670;7.788;2024-03-08T10:36:14;30.23;;;19.80;;
11008;SDS011;5557;51.670;7.788;2024-03-08T10:38:42;29.60;;;19.67;;
11008;SDS011;5557;51.670;7.788;2024-03-08T10:41:14;32.53;;;21.20;;
11008;SDS011;5557;51.670;7.788;2024-03-08T10:45:06;31.83;;;22.17;;
11008;SDS011;5557;51.670;7.788;2024-03-08T10:47:00;33.27;;;18.87;;
11008;SDS011;5557;51.670;7.788;2024-03-08T10:49:32;33.90;;;22.40;;
11008;SDS011;5557;51.670;7.788;2024-03-08T10:52:30;30.90;;;21.60;;
11008;SDS011;5557;51.670;7.788;2024-03-08T10:54:58;31.97;;;21.20;;
11008;SDS011;5557;51.670;7.788;2024-03-08T10:57:31;29.90;;;20.53;;
11008;SDS011;5557;51.670;7.788;2024-03-08T11:00:17;29.00;;;19.77;;
11008;SDS011;5557;51.670;7.788;2024-03-08T11:02:53;27.40;;;19.40;;
11008;SDS011;5557;51.670;7.788;2024-03-08T11:05:39;32.13;;;19.80;;
11008;SDS011;5557;51.670;7.788;2024-03-08T11:10:48;28.20;;;20.10;;
11008;SDS011;5557;51.670;7.788;2024-03-08T11:13:38;25.10;;;18.57;;
11008;SDS011;5557;51.670;7.788;2024-03-08T11:16:36;28.67;;;19.10;;
11008;SDS011;5557;51.670;7.788;2024-03-08T11:21:37;29.93;;;17.83;;
11008;SDS011;5557;51.670;7.788;2024-03-08T11:24:07;23.87;;;17.13;;
11008;SDS011;5557;51.670;7.788;2024-03-08T11:26:38;35.30;;;20.13;;
11008;SDS011;5557;51.670;7.788;2024-03-08T11:29:39;22.50;;;15.47;;
11008;SDS011;5557;51.670;7.788;2024-03-08T11:32:12;31.23;;;20.13;;
11008;SDS011;5557;51.670;7.788;2024-03-08T11:34:45;26.37;;;18.57;;
11008;SDS011;5557;51.670;7.788;2024-03-08T11:37:15;32.23;;;19.20;;
11008;SDS011;5557;51.670;7.788;2024-03-08T11:39:48;26.97;;;19.60;;
11008;SDS011;5557;51.670;7.788;2024-03-08T11:42:16;20.93;;;14.33;;
11008;SDS011;5557;51.670;7.788;2024-03-08T11:44:47;23.17;;;12.17;;
11008;SDS011;5557;51.670;7.788;2024-03-08T11:47:17;25.23;;;18.47;;
11008;SDS011;5557;51.670;7.788;2024-03-08T11:49:44;27.00;;;17.43;;
11008;SDS011;5557;51.670;7.788;2024-03-08T11:52:14;19.73;;;16.60;;
11008;SDS011;5557;51.670;7.788;2024-03-08T11:54:53;26.03;;;17.23;;
11008;SDS011;5557;51.670;7.788;2024-03-08T11:57:23;26.73;;;18.00;;
11008;SDS011;5557;51.670;7.788;2024-03-08T11:59:51;29.23;;;17.43;;
11008;SDS011;5557;51.670;7.788;2024-03-08T12:02:23;23.10;;;16.67;;
11008;SDS011;5557;51.670;7.788;2024-03-08T12:04:59;24.30;;;18.43;;
11008;SDS011;5557;51.670;7.788;2024-03-08T12:07:29;28.53;;;17.90;;
11008;SDS011;5557;51.670;7.788;2024-03-08T12:10:19;31.23;;;19.27;;
11008;SDS011;5557;51.670;7.788;2024-03-08T12:12:49;25.67;;;19.00;;
11008;SDS011;5557;51.670;7.788;2024-03-08T12:15:22;29.93;;;14.57;;
11008;SDS011;5557;51.670;7.788;2024-03-08T12:17:50;25.07;;;18.47;;
11008;SDS011;5557;51.670;7.788;2024-03-08T12:20:19;26.77;;;18.87;;
11008;SDS011;5557;51.670;7.788;2024-03-08T12:22:48;29.90;;;17.27;;
11008;SDS011;5557;51.670;7.788;2024-03-08T12:25:19;32.40;;;20.10;;
11008;SDS011;5557;51.670;7.788;2024-03-08T12:27:46;26.70;;;20.10;;
11008;SDS011;5557;51.670;7.788;2024-03-08T12:32:57;26.40;;;18.87;;
11008;SDS011;5557;51.670;7.788;2024-03-08T12:35:27;31.07;;;19.60;;
11008;SDS011;5557;51.670;7.788;2024-03-08T12:37:57;24.90;;;17.57;;
11008;SDS011;5557;51.670;7.788;2024-03-08T12:40:29;33.07;;;19.97;;
11008;SDS011;5557;51.670;7.788;2024-03-08T12:42:58;26.93;;;19.87;;
11008;SDS011;5557;51.670;7.788;2024-03-08T12:45:26;28.43;;;19.67;;
11008;SDS011;5557;51.670;7.788;2024-03-08T12:47:53;27.50;;;17.60;;
11008;SDS011;5557;51.670;7.788;2024-03-08T12:50:21;30.33;;;17.27;;
11008;SDS011;5557;51.670;7.788;2024-03-08T12:52:49;24.10;;;17.70;;
11008;SDS011;5557;51.670;7.788;2024-03-08T12:55:19;27.87;;;19.97;;
11008;SDS011;5557;51.670;7.788;2024-03-08T12:57:46;27.10;;;18.63;;
11008;SDS011;5557;51.670;7.788;2024-03-08T13:00:15;32.80;;;17.03;;
11008;SDS011;5557;51.670;7.788;2024-03-08T13:02:50;26.43;;;18.17;;
11008;SDS011;5557;51.670;7.788;2024-03-08T13:05:18;30.40;;;19.53;;
11008;SDS011;5557;51.670;7.788;2024-03-08T13:07:46;26.40;;;17.80;;
11008;SDS011;5557;51.670;7.788;2024-03-08T13:10:14;28.70;;;19.53;;
11008;SDS011;5557;51.670;7.788;2024-03-08T13:12:45;27.10;;;17.57;;
11008;SDS011;5557;51.670;7.788;2024-03-08T13:15:13;30.30;;;19.90;;
11008;SDS011;5557;51.670;7.788;2024-03-08T13:17:47;23.90;;;16.30;;
11008;SDS011;5557;51.670;7.788;2024-03-08T13:20:17;26.07;;;18.20;;
11008;SDS011;5557;51.670;7.788;2024-03-08T13:22:56;26.93;;;18.80;;
11008;SDS011;5557;51.670;7.788;2024-03-08T13:25:25;31.83;;;19.73;;
11008;SDS011;5557;51.670;7.788;2024-03-08T13:27:52;27.20;;;19.43;;
11008;SDS011;5557;51.670;7.788;2024-03-08T13:30:22;24.43;;;17.73;;
11008;SDS011;5557;51.670;7.788;2024-03-08T13:32:53;30.27;;;20.50;;
11008;SDS011;5557;51.670;7.788;2024-03-08T13:35:23;30.77;;;20.93;;
11008;SDS011;5557;51.670;7.788;2024-03-08T13:37:54;26.60;;;18.80;;
11008;SDS011;5557;51.670;7.788;2024-03-08T13:40:23;29.17;;;16.43;;
11008;SDS011;5557;51.670;7.788;2024-03-08T13:42:50;31.70;;;19.50;;
11008;SDS011;5557;51.670;7.788;2024-03-08T13:45:17;27.80;;;20.07;;
11008;SDS011;5557;51.670;7.788;2024-03-08T13:47:53;27.43;;;18.67;;
11008;SDS011;5557;51.670;7.788;2024-03-08T13:50:21;31.13;;;21.30;;
11008;SDS011;5557;51.670;7.788;2024-03-08T13:52:49;36.03;;;16.80;;
11008;SDS011;5557;51.670;7.788;2024-03-08T13:55:22;24.20;;;18.03;;
11008;SDS011;5557;51.670;7.788;2024-03-08T13:57:52;28.27;;;17.90;;
11008;SDS011;5557;51.670;7.788;2024-03-08T14:00:19;25.50;;;17.20;;
11008;SDS011;5557;51.670;7.788;2024-03-08T14:02:52;28.80;;;19.43;;
11008;SDS011;5557;51.670;7.788;2024-03-08T14:05:20;32.07;;;17.77;;
11008;SDS011;5557;51.670;7.788;2024-03-08T14:07:47;23.03;;;15.10;;
11008;SDS011;5557;51.670;7.788;2024-03-08T14:10:16;22.87;;;18.27;;
11008;SDS011;5557;51.670;7.788;2024-03-08T14:12:47;28.53;;;19.83;;
11008;SDS011;5557;51.670;7.788;2024-03-08T14:15:17;40.03;;;23.93;;
11008;SDS011;5557;51.670;7.788;2024-03-08T14:17:44;31.27;;;21.67;;
11008;SDS011;5557;51.670;7.788;2024-03-08T14:20:14;25.90;;;17.13;;
11008;SDS011;5557;51.670;7.788;2024-03-08T14:22:41;28.63;;;19.50;;
11008;SDS011;5557;51.670;7.788;2024-03-08T14:25:08;26.07;;;17.60;;
11008;SDS011;5557;51.670;7.788;2024-03-08T14:27:44;28.70;;;19.60;;
11008;SDS011;5557;51.670;7.788;2024-03-08T14:30:12;26.33;;;19.27;;
11008;SDS011;5557;51.670;7.788;2024-03-08T14:32:40;29.03;;;20.00;;
11008;SDS011;5557;51.670;7.788;2024-03-08T14:35:08;37.00;;;22.60;;
11008;SDS011;5557;51.670;7.788;2024-03-08T14:37:37;26.87;;;19.67;;
11008;SDS011;5557;51.670;7.788;2024-03-08T14:40:05;26.87;;;18.63;;
11008;SDS011;5557;51.670;7.788;2024-03-08T14:42:35;29.80;;;20.63;;
11008;SDS011;5557;51.670;7.788;2024-03-08T14:45:02;25.63;;;17.43;;
11008;SDS011;5557;51.670;7.788;2024-03-08T14:47:30;30.00;;;19.43;;
11008;SDS011;5557;51.670;7.788;2024-03-08T14:49:57;34.63;;;19.87;;
11008;SDS011;5557;51.670;7.788;2024-03-08T14:52:24;29.03;;;19.90;;
11008;SDS011;5557;51.670;7.788;2024-03-08T14:54:57;30.17;;;21.63;;
11008;SDS011;5557;51.670;7.788;2024-03-08T14:57:24;32.00;;;20.50;;